sensor_id;sensor_type;location;lat;lon;timestamp;pressure;altitude;pressure_sealevel;temperature;humidity
54262;BME280;40174;52.364;6.452;2022-09-01T00:00:23;102022.53;;;15.07;88.09
54262;BME280;40174;52.364;6.452;2022-09-01T00:02:53;102017.31;;;15.06;88.41
54262;BME280;40174;52.364;6.452;2022-09-01T00:05:21;102021.06;;;15.03;88.54
54262;BME280;40174;52.364;6.452;2022-09-01T00:07:48;102014.41;;;14.97;88.47
54262;BME280;40174;52.364;6.452;2022-09-01T00:10:15;102018.44;;;14.92;89.27
54262;BME280;40174;52.364;6.452;2022-09-01T00:12:41;102012.75;;;14.85;90.00
54262;BME280;40174;52.364;6.452;2022-09-01T00:15:10;102018.44;;;14.81;90.25
54262;BME280;40174;52.364;6.452;2022-09-01T00:17:37;102021.56;;;14.74;90.19
54262;BME280;40174;52.364;6.452;2022-09-01T00:20:05;102016.63;;;14.70;90.31
54262;BME280;40174;52.364;6.452;2022-09-01T00:22:33;102010.47;;;14.69;90.29
54262;BME280;40174;52.364;6.452;2022-09-01T00:24:59;102015.53;;;14.61;90.73
54262;BME280;40174;52.364;6.452;2022-09-01T00:27:26;102012.50;;;14.54;91.60
54262;BME280;40174;52.364;6.452;2022-09-01T00:29:53;102010.31;;;14.48;91.72
54262;BME280;40174;52.364;6.452;2022-09-01T00:32:19;102021.06;;;14.47;92.00
54262;BME280;40174;52.364;6.452;2022-09-01T00:34:46;102020.59;;;14.42;92.22
54262;BME280;40174;52.364;6.452;2022-09-01T00:37:12;102019.97;;;14.38;92.56
54262;BME280;40174;52.364;6.452;2022-09-01T00:39:40;102014.16;;;14.33;93.18
54262;BME280;40174;52.364;6.452;2022-09-01T00:42:07;102006.66;;;14.27;93.24
54262;BME280;40174;52.364;6.452;2022-09-01T00:44:34;102015.94;;;14.21;93.65
54262;BME280;40174;52.364;6.452;2022-09-01T00:47:03;102014.38;;;14.19;93.45
54262;BME280;40174;52.364;6.452;2022-09-01T00:49:34;102009.66;;;14.11;94.36
54262;BME280;40174;52.364;6.452;2022-09-01T00:52:04;102004.44;;;14.09;94.24
54262;BME280;40174;52.364;6.452;2022-09-01T00:54:35;102011.81;;;14.06;94.40
54262;BME280;40174;52.364;6.452;2022-09-01T00:57:07;102010.22;;;14.03;94.74
54262;BME280;40174;52.364;6.452;2022-09-01T00:59:35;102009.97;;;13.95;94.82
54262;BME280;40174;52.364;6.452;2022-09-01T01:02:04;101999.69;;;13.90;95.07
54262;BME280;40174;52.364;6.452;2022-09-01T01:04:30;102003.09;;;13.92;95.12
54262;BME280;40174;52.364;6.452;2022-09-01T01:06:58;102004.13;;;13.90;95.13
54262;BME280;40174;52.364;6.452;2022-09-01T01:09:28;102006.31;;;13.85;96.24
54262;BME280;40174;52.364;6.452;2022-09-01T01:11:56;101999.66;;;13.79;95.86
54262;BME280;40174;52.364;6.452;2022-09-01T01:14:27;101997.00;;;13.79;95.34
54262;BME280;40174;52.364;6.452;2022-09-01T01:16:58;102003.41;;;13.77;95.52
54262;BME280;40174;52.364;6.452;2022-09-01T01:19:31;102014.97;;;13.76;95.66
54262;BME280;40174;52.364;6.452;2022-09-01T01:22:21;102001.19;;;13.70;95.67
54262;BME280;40174;52.364;6.452;2022-09-01T01:25:11;101997.31;;;13.63;96.01
54262;BME280;40174;52.364;6.452;2022-09-01T01:27:39;102002.97;;;13.59;96.53
54262;BME280;40174;52.364;6.452;2022-09-01T01:30:08;102002.44;;;13.54;96.52
54262;BME280;40174;52.364;6.452;2022-09-01T01:32:36;101998.31;;;13.49;96.75
54262;BME280;40174;52.364;6.452;2022-09-01T01:35:08;101997.56;;;13.47;96.76
54262;BME280;40174;52.364;6.452;2022-09-01T01:37:36;101997.81;;;13.44;96.75
54262;BME280;40174;52.364;6.452;2022-09-01T01:40:04;102002.28;;;13.44;96.97
54262;BME280;40174;52.364;6.452;2022-09-01T01:42:32;102009.50;;;13.42;96.86
54262;BME280;40174;52.364;6.452;2022-09-01T01:44:59;102006.00;;;13.41;96.59
54262;BME280;40174;52.364;6.452;2022-09-01T01:47:26;101999.56;;;13.33;97.01
54262;BME280;40174;52.364;6.452;2022-09-01T01:49:52;102007.75;;;13.29;97.29
54262;BME280;40174;52.364;6.452;2022-09-01T01:52:21;102001.78;;;13.26;96.80
54262;BME280;40174;52.364;6.452;2022-09-01T01:54:49;102004.88;;;13.20;97.37
54262;BME280;40174;52.364;6.452;2022-09-01T01:57:15;101998.84;;;13.18;97.01
54262;BME280;40174;52.364;6.452;2022-09-01T01:59:44;101998.09;;;13.16;97.04
54262;BME280;40174;52.364;6.452;2022-09-01T02:02:11;101998.44;;;13.11;97.22
54262;BME280;40174;52.364;6.452;2022-09-01T02:04:38;102005.78;;;13.07;97.33
54262;BME280;40174;52.364;6.452;2022-09-01T02:07:10;102011.53;;;13.01;97.99
54262;BME280;40174;52.364;6.452;2022-09-01T02:09:38;102000.19;;;12.99;97.40
54262;BME280;40174;52.364;6.452;2022-09-01T02:12:06;102002.94;;;12.98;97.58
54262;BME280;40174;52.364;6.452;2022-09-01T02:14:34;102003.16;;;12.95;97.56
54262;BME280;40174;52.364;6.452;2022-09-01T02:17:02;102005.41;;;12.88;97.77
54262;BME280;40174;52.364;6.452;2022-09-01T02:19:30;102010.94;;;12.85;98.21
54262;BME280;40174;52.364;6.452;2022-09-01T02:21:58;102009.13;;;12.85;97.67
54262;BME280;40174;52.364;6.452;2022-09-01T02:24:24;102002.56;;;12.78;97.84
54262;BME280;40174;52.364;6.452;2022-09-01T02:26:55;102005.66;;;12.72;98.15
54262;BME280;40174;52.364;6.452;2022-09-01T02:29:24;102003.94;;;12.71;97.91
54262;BME280;40174;52.364;6.452;2022-09-01T02:31:55;102006.09;;;12.66;98.27
54262;BME280;40174;52.364;6.452;2022-09-01T02:34:25;102002.91;;;12.61;98.25
54262;BME280;40174;52.364;6.452;2022-09-01T02:36:55;102010.22;;;12.57;98.36
54262;BME280;40174;52.364;6.452;2022-09-01T02:39:25;102012.59;;;12.49;98.88
54262;BME280;40174;52.364;6.452;2022-09-01T02:41:55;102005.03;;;12.43;99.49
54262;BME280;40174;52.364;6.452;2022-09-01T02:44:25;102006.13;;;12.40;99.65
54262;BME280;40174;52.364;6.452;2022-09-01T02:46:54;102003.56;;;12.39;99.61
54262;BME280;40174;52.364;6.452;2022-09-01T02:49:24;102002.91;;;12.35;99.17
54262;BME280;40174;52.364;6.452;2022-09-01T02:51:53;101997.00;;;12.32;99.16
54262;BME280;40174;52.364;6.452;2022-09-01T02:54:27;101999.84;;;12.28;99.72
54262;BME280;40174;52.364;6.452;2022-09-01T02:56:54;102003.78;;;12.23;100.00
54262;BME280;40174;52.364;6.452;2022-09-01T02:59:25;101999.63;;;12.19;100.00
54262;BME280;40174;52.364;6.452;2022-09-01T03:01:55;102010.22;;;12.19;99.97
54262;BME280;40174;52.364;6.452;2022-09-01T03:04:24;101999.94;;;12.14;99.72
54262;BME280;40174;52.364;6.452;2022-09-01T03:06:51;102001.00;;;12.12;99.60
54262;BME280;40174;52.364;6.452;2022-09-01T03:09:19;102004.06;;;12.05;99.99
54262;BME280;40174;52.364;6.452;2022-09-01T03:11:48;102006.84;;;12.04;99.49
54262;BME280;40174;52.364;6.452;2022-09-01T03:14:15;102003.75;;;11.97;99.96
54262;BME280;40174;52.364;6.452;2022-09-01T03:16:42;102005.84;;;11.92;100.00
54262;BME280;40174;52.364;6.452;2022-09-01T03:19:09;102009.75;;;11.86;100.00
54262;BME280;40174;52.364;6.452;2022-09-01T03:21:39;102001.97;;;11.83;100.00
54262;BME280;40174;52.364;6.452;2022-09-01T03:24:07;102003.44;;;11.75;100.00
54262;BME280;40174;52.364;6.452;2022-09-01T03:26:35;102001.22;;;11.69;100.00
54262;BME280;40174;52.364;6.452;2022-09-01T03:29:02;102001.31;;;11.67;100.00
54262;BME280;40174;52.364;6.452;2022-09-01T03:31:29;101999.72;;;11.64;100.00
54262;BME280;40174;52.364;6.452;2022-09-01T03:33:57;101996.31;;;11.62;100.00
54262;BME280;40174;52.364;6.452;2022-09-01T03:36:29;102001.94;;;11.58;100.00
54262;BME280;40174;52.364;6.452;2022-09-01T03:39:00;102000.41;;;11.54;100.00
54262;BME280;40174;52.364;6.452;2022-09-01T03:41:29;102002.31;;;11.52;100.00
54262;BME280;40174;52.364;6.452;2022-09-01T03:43:56;102007.75;;;11.50;100.00
54262;BME280;40174;52.364;6.452;2022-09-01T03:46:26;102005.34;;;11.45;100.00
54262;BME280;40174;52.364;6.452;2022-09-01T03:48:56;102001.03;;;11.44;100.00
54262;BME280;40174;52.364;6.452;2022-09-01T03:51:28;102004.72;;;11.42;100.00
54262;BME280;40174;52.364;6.452;2022-09-01T03:53:58;102005.78;;;11.39;100.00
54262;BME280;40174;52.364;6.452;2022-09-01T03:56:27;102012.22;;;11.35;100.00
54262;BME280;40174;52.364;6.452;2022-09-01T03:58:56;102007.84;;;11.34;100.00
54262;BME280;40174;52.364;6.452;2022-09-01T04:01:23;102006.38;;;11.30;100.00
54262;BME280;40174;52.364;6.452;2022-09-01T04:03:50;102002.31;;;11.24;100.00
54262;BME280;40174;52.364;6.452;2022-09-01T04:06:21;102000.06;;;11.18;100.00
54262;BME280;40174;52.364;6.452;2022-09-01T04:08:49;101995.66;;;11.19;100.00
54262;BME280;40174;52.364;6.452;2022-09-01T04:11:21;102001.94;;;11.16;100.00
54262;BME280;40174;52.364;6.452;2022-09-01T04:13:51;102001.09;;;11.16;100.00
54262;BME280;40174;52.364;6.452;2022-09-01T04:16:20;102001.94;;;11.16;100.00
54262;BME280;40174;52.364;6.452;2022-09-01T04:19:04;101990.81;;;11.11;100.00
54262;BME280;40174;52.364;6.452;2022-09-01T04:21:41;101993.75;;;11.07;100.00
54262;BME280;40174;52.364;6.452;2022-09-01T04:24:09;101995.75;;;11.03;100.00
54262;BME280;40174;52.364;6.452;2022-09-01T04:26:38;101990.56;;;11.01;100.00
54262;BME280;40174;52.364;6.452;2022-09-01T04:29:07;101988.09;;;10.98;100.00
54262;BME280;40174;52.364;6.452;2022-09-01T04:31:36;101998.81;;;10.97;100.00
54262;BME280;40174;52.364;6.452;2022-09-01T04:34:05;101986.72;;;10.93;100.00
54262;BME280;40174;52.364;6.452;2022-09-01T04:36:38;101993.81;;;10.92;100.00
54262;BME280;40174;52.364;6.452;2022-09-01T04:39:08;101986.91;;;10.90;100.00
54262;BME280;40174;52.364;6.452;2022-09-01T04:41:38;101982.47;;;10.90;100.00
54262;BME280;40174;52.364;6.452;2022-09-01T04:44:08;101994.94;;;10.88;100.00
54262;BME280;40174;52.364;6.452;2022-09-01T04:46:39;102000.31;;;10.87;100.00
54262;BME280;40174;52.364;6.452;2022-09-01T04:49:08;101995.13;;;10.85;100.00
54262;BME280;40174;52.364;6.452;2022-09-01T04:51:37;101989.94;;;10.84;100.00
54262;BME280;40174;52.364;6.452;2022-09-01T04:54:04;101994.69;;;10.78;100.00
54262;BME280;40174;52.364;6.452;2022-09-01T04:56:32;101984.94;;;10.79;100.00
54262;BME280;40174;52.364;6.452;2022-09-01T04:59:12;101999.84;;;10.80;100.00
54262;BME280;40174;52.364;6.452;2022-09-01T05:01:39;101988.53;;;10.78;100.00
54262;BME280;40174;52.364;6.452;2022-09-01T05:04:11;101990.31;;;10.77;100.00
54262;BME280;40174;52.364;6.452;2022-09-01T05:06:43;101991.16;;;10.78;100.00
54262;BME280;40174;52.364;6.452;2022-09-01T05:09:12;101988.63;;;10.76;100.00
54262;BME280;40174;52.364;6.452;2022-09-01T05:11:59;101994.78;;;10.77;100.00
54262;BME280;40174;52.364;6.452;2022-09-01T05:14:37;101989.56;;;10.75;100.00
54262;BME280;40174;52.364;6.452;2022-09-01T05:17:07;101992.13;;;10.77;100.00
54262;BME280;40174;52.364;6.452;2022-09-01T05:19:35;101994.78;;;10.77;100.00
54262;BME280;40174;52.364;6.452;2022-09-01T05:22:02;101988.44;;;10.79;100.00
54262;BME280;40174;52.364;6.452;2022-09-01T05:24:31;101999.84;;;10.80;100.00
54262;BME280;40174;52.364;6.452;2022-09-01T05:27:03;101997.88;;;10.84;100.00
54262;BME280;40174;52.364;6.452;2022-09-01T05:29:33;102000.53;;;10.84;100.00
54262;BME280;40174;52.364;6.452;2022-09-01T05:32:06;102003.72;;;10.89;100.00
54262;BME280;40174;52.364;6.452;2022-09-01T05:34:36;102000.31;;;10.87;100.00
54262;BME280;40174;52.364;6.452;2022-09-01T05:37:05;102002.59;;;10.93;100.00
54262;BME280;40174;52.364;6.452;2022-09-01T05:39:33;102010.22;;;10.97;100.00
54262;BME280;40174;52.364;6.452;2022-09-01T05:42:03;102011.75;;;11.01;100.00
54262;BME280;40174;52.364;6.452;2022-09-01T05:44:32;102008.78;;;11.06;100.00
54262;BME280;40174;52.364;6.452;2022-09-01T05:46:59;102016.44;;;11.11;100.00
54262;BME280;40174;52.364;6.452;2022-09-01T05:49:30;102014.47;;;11.14;100.00
54262;BME280;40174;52.364;6.452;2022-09-01T05:52:01;102020.38;;;11.18;100.00
54262;BME280;40174;52.364;6.452;2022-09-01T05:54:29;102017.66;;;11.19;100.00
54262;BME280;40174;52.364;6.452;2022-09-01T05:56:57;102015.47;;;11.26;100.00
54262;BME280;40174;52.364;6.452;2022-09-01T05:59:27;102019.50;;;11.32;100.00
54262;BME280;40174;52.364;6.452;2022-09-01T06:02:14;102024.50;;;11.36;100.00
54262;BME280;40174;52.364;6.452;2022-09-01T06:04:44;102025.81;;;11.43;100.00
54262;BME280;40174;52.364;6.452;2022-09-01T06:07:18;102020.31;;;11.47;100.00
54262;BME280;40174;52.364;6.452;2022-09-01T06:09:50;102024.34;;;11.52;100.00
54262;BME280;40174;52.364;6.452;2022-09-01T06:12:20;102018.66;;;11.58;100.00
54262;BME280;40174;52.364;6.452;2022-09-01T06:14:49;102021.84;;;11.63;100.00
54262;BME280;40174;52.364;6.452;2022-09-01T06:17:18;102023.47;;;11.66;100.00
54262;BME280;40174;52.364;6.452;2022-09-01T06:19:51;102024.94;;;11.70;100.00
54262;BME280;40174;52.364;6.452;2022-09-01T06:22:20;102015.00;;;11.74;100.00
54262;BME280;40174;52.364;6.452;2022-09-01T06:24:48;102017.25;;;11.80;100.00
54262;BME280;40174;52.364;6.452;2022-09-01T06:27:16;102015.97;;;11.85;100.00
54262;BME280;40174;52.364;6.452;2022-09-01T06:29:45;102024.38;;;11.92;100.00
54262;BME280;40174;52.364;6.452;2022-09-01T06:32:13;102025.78;;;11.98;100.00
54262;BME280;40174;52.364;6.452;2022-09-01T06:34:42;102020.19;;;12.02;100.00
54262;BME280;40174;52.364;6.452;2022-09-01T06:37:10;102018.06;;;12.07;100.00
54262;BME280;40174;52.364;6.452;2022-09-01T06:39:38;102020.50;;;12.11;100.00
54262;BME280;40174;52.364;6.452;2022-09-01T06:42:06;102025.38;;;12.17;100.00
54262;BME280;40174;52.364;6.452;2022-09-01T06:44:44;102024.22;;;12.21;100.00
54262;BME280;40174;52.364;6.452;2022-09-01T06:47:11;102022.97;;;12.26;100.00
54262;BME280;40174;52.364;6.452;2022-09-01T06:49:39;102027.97;;;12.31;100.00
54262;BME280;40174;52.364;6.452;2022-09-01T06:52:13;102032.94;;;12.36;100.00
54262;BME280;40174;52.364;6.452;2022-09-01T06:54:40;102031.78;;;12.40;100.00
54262;BME280;40174;52.364;6.452;2022-09-01T06:57:08;102036.78;;;12.44;100.00
54262;BME280;40174;52.364;6.452;2022-09-01T06:59:35;102035.16;;;12.55;100.00
54262;BME280;40174;52.364;6.452;2022-09-01T07:02:03;102034.63;;;12.62;100.00
54262;BME280;40174;52.364;6.452;2022-09-01T07:04:49;102032.50;;;12.67;100.00
54262;BME280;40174;52.364;6.452;2022-09-01T07:07:18;102033.25;;;12.69;100.00
54262;BME280;40174;52.364;6.452;2022-09-01T07:10:04;102035.78;;;12.71;100.00
54262;BME280;40174;52.364;6.452;2022-09-01T07:12:40;102039.59;;;12.80;100.00
54262;BME280;40174;52.364;6.452;2022-09-01T07:15:11;102037.16;;;12.89;100.00
54262;BME280;40174;52.364;6.452;2022-09-01T07:17:42;102040.75;;;12.88;100.00
54262;BME280;40174;52.364;6.452;2022-09-01T07:20:10;102036.81;;;12.94;100.00
54262;BME280;40174;52.364;6.452;2022-09-01T07:22:39;102035.97;;;12.94;100.00
54262;BME280;40174;52.364;6.452;2022-09-01T07:25:06;102034.84;;;13.09;100.00
54262;BME280;40174;52.364;6.452;2022-09-01T07:27:57;102039.50;;;13.31;100.00
54262;BME280;40174;52.364;6.452;2022-09-01T07:30:25;102038.09;;;13.38;100.00
54262;BME280;40174;52.364;6.452;2022-09-01T07:32:52;102026.09;;;13.45;100.00
54262;BME280;40174;52.364;6.452;2022-09-01T07:35:21;102043.41;;;13.62;99.82
54262;BME280;40174;52.364;6.452;2022-09-01T07:37:50;102040.31;;;13.68;98.69
54262;BME280;40174;52.364;6.452;2022-09-01T07:40:19;102048.31;;;13.80;98.25
54262;BME280;40174;52.364;6.452;2022-09-01T07:43:20;102043.75;;;13.82;98.12
54262;BME280;40174;52.364;6.452;2022-09-01T07:45:52;102049.31;;;13.90;98.66
54262;BME280;40174;52.364;6.452;2022-09-01T07:48:22;102042.88;;;14.17;98.42
54262;BME280;40174;52.364;6.452;2022-09-01T07:50:52;102038.28;;;14.19;97.35
54262;BME280;40174;52.364;6.452;2022-09-01T07:53:21;102047.66;;;14.47;96.34
54262;BME280;40174;52.364;6.452;2022-09-01T07:55:49;102041.00;;;14.41;96.08
54262;BME280;40174;52.364;6.452;2022-09-01T07:58:18;102042.81;;;14.52;95.74
54262;BME280;40174;52.364;6.452;2022-09-01T08:00:47;102044.06;;;14.70;94.92
54262;BME280;40174;52.364;6.452;2022-09-01T08:03:17;102040.91;;;14.99;92.78
54262;BME280;40174;52.364;6.452;2022-09-01T08:05:44;102041.03;;;15.20;91.42
54262;BME280;40174;52.364;6.452;2022-09-01T08:08:11;102049.09;;;15.41;90.03
54262;BME280;40174;52.364;6.452;2022-09-01T08:10:41;102044.28;;;15.67;87.89
54262;BME280;40174;52.364;6.452;2022-09-01T08:13:10;102043.03;;;15.83;86.96
54262;BME280;40174;52.364;6.452;2022-09-01T08:15:37;102046.75;;;16.33;84.62
54262;BME280;40174;52.364;6.452;2022-09-01T08:18:04;102046.34;;;16.38;83.34
54262;BME280;40174;52.364;6.452;2022-09-01T08:20:32;102047.03;;;16.82;79.51
54262;BME280;40174;52.364;6.452;2022-09-01T08:23:22;102049.69;;;17.22;77.06
54262;BME280;40174;52.364;6.452;2022-09-01T08:25:53;102051.53;;;17.32;75.69
54262;BME280;40174;52.364;6.452;2022-09-01T08:28:20;102047.63;;;17.55;76.20
54262;BME280;40174;52.364;6.452;2022-09-01T08:30:46;102050.50;;;17.83;77.54
54262;BME280;40174;52.364;6.452;2022-09-01T08:33:14;102055.38;;;18.07;73.63
54262;BME280;40174;52.364;6.452;2022-09-01T08:35:46;102047.72;;;18.32;71.71
54262;BME280;40174;52.364;6.452;2022-09-01T08:38:14;102042.63;;;18.48;70.26
54262;BME280;40174;52.364;6.452;2022-09-01T08:40:48;102044.38;;;18.67;69.42
54262;BME280;40174;52.364;6.452;2022-09-01T08:43:49;102049.41;;;18.89;70.31
54262;BME280;40174;52.364;6.452;2022-09-01T08:46:24;102050.63;;;19.23;67.38
54262;BME280;40174;52.364;6.452;2022-09-01T08:48:54;102046.69;;;19.45;66.20
54262;BME280;40174;52.364;6.452;2022-09-01T08:51:26;102052.22;;;19.79;66.30
54262;BME280;40174;52.364;6.452;2022-09-01T08:54:03;102053.22;;;19.96;65.08
54262;BME280;40174;52.364;6.452;2022-09-01T08:56:33;102054.19;;;20.13;65.61
54262;BME280;40174;52.364;6.452;2022-09-01T08:59:05;102055.50;;;20.35;63.40
54262;BME280;40174;52.364;6.452;2022-09-01T09:01:58;102054.47;;;20.54;60.91
54262;BME280;40174;52.364;6.452;2022-09-01T09:04:42;102057.59;;;20.67;60.11
54262;BME280;40174;52.364;6.452;2022-09-01T09:07:19;102057.13;;;20.80;59.88
54262;BME280;40174;52.364;6.452;2022-09-01T09:09:54;102041.44;;;21.02;60.47
54262;BME280;40174;52.364;6.452;2022-09-01T09:12:34;102050.38;;;21.18;59.71
54262;BME280;40174;52.364;6.452;2022-09-01T09:15:15;102057.31;;;21.29;57.85
54262;BME280;40174;52.364;6.452;2022-09-01T09:17:47;102051.34;;;21.52;57.19
54262;BME280;40174;52.364;6.452;2022-09-01T09:20:15;102051.69;;;21.65;56.54
54262;BME280;40174;52.364;6.452;2022-09-01T09:22:44;102043.13;;;21.78;55.15
54262;BME280;40174;52.364;6.452;2022-09-01T09:25:15;102036.56;;;21.80;54.24
54262;BME280;40174;52.364;6.452;2022-09-01T09:27:43;102029.34;;;21.89;53.68
54262;BME280;40174;52.364;6.452;2022-09-01T09:30:13;102035.22;;;22.09;53.47
54262;BME280;40174;52.364;6.452;2022-09-01T09:32:44;102023.44;;;22.27;53.09
54262;BME280;40174;52.364;6.452;2022-09-01T09:35:21;102026.56;;;22.55;52.50
54262;BME280;40174;52.364;6.452;2022-09-01T09:37:48;102031.94;;;22.55;51.15
54262;BME280;40174;52.364;6.452;2022-09-01T09:40:17;102015.84;;;22.78;52.17
54262;BME280;40174;52.364;6.452;2022-09-01T09:43:00;102026.47;;;22.79;49.22
54262;BME280;40174;52.364;6.452;2022-09-01T09:45:31;102010.97;;;22.81;48.74
54262;BME280;40174;52.364;6.452;2022-09-01T09:47:59;102012.59;;;22.91;48.00
54262;BME280;40174;52.364;6.452;2022-09-01T09:50:31;102005.66;;;23.04;48.36
54262;BME280;40174;52.364;6.452;2022-09-01T09:53:14;102007.84;;;23.32;48.21
54262;BME280;40174;52.364;6.452;2022-09-01T09:55:56;102007.06;;;23.47;47.27
54262;BME280;40174;52.364;6.452;2022-09-01T09:58:25;102002.34;;;23.49;46.68
54262;BME280;40174;52.364;6.452;2022-09-01T10:01:05;102006.34;;;23.76;47.89
54262;BME280;40174;52.364;6.452;2022-09-01T10:03:40;102008.44;;;23.89;46.33
54262;BME280;40174;52.364;6.452;2022-09-01T10:06:12;102009.78;;;24.07;46.90
54262;BME280;40174;52.364;6.452;2022-09-01T10:08:43;102009.88;;;24.14;43.99
54262;BME280;40174;52.364;6.452;2022-09-01T10:11:12;101996.28;;;24.22;44.70
54262;BME280;40174;52.364;6.452;2022-09-01T10:13:51;101998.34;;;24.35;44.23
54262;BME280;40174;52.364;6.452;2022-09-01T10:16:24;102005.34;;;24.59;43.50
54262;BME280;40174;52.364;6.452;2022-09-01T10:18:54;102000.16;;;24.58;42.71
54262;BME280;40174;52.364;6.452;2022-09-01T10:21:28;101991.34;;;24.71;44.45
54262;BME280;40174;52.364;6.452;2022-09-01T10:23:55;101990.13;;;24.88;43.56
54262;BME280;40174;52.364;6.452;2022-09-01T10:26:28;101992.38;;;24.84;42.50
54262;BME280;40174;52.364;6.452;2022-09-01T10:28:59;101990.69;;;24.83;42.82
54262;BME280;40174;52.364;6.452;2022-09-01T10:31:28;101992.81;;;24.88;41.30
54262;BME280;40174;52.364;6.452;2022-09-01T10:33:55;101984.72;;;24.88;40.11
54262;BME280;40174;52.364;6.452;2022-09-01T10:36:22;101981.75;;;25.04;41.50
54262;BME280;40174;52.364;6.452;2022-09-01T10:38:49;101979.38;;;24.95;40.06
54262;BME280;40174;52.364;6.452;2022-09-01T10:41:43;101971.75;;;24.83;41.27
54262;BME280;40174;52.364;6.452;2022-09-01T10:44:17;101973.03;;;25.02;40.23
54262;BME280;40174;52.364;6.452;2022-09-01T10:46:48;101971.41;;;25.08;39.80
54262;BME280;40174;52.364;6.452;2022-09-01T10:49:56;101971.53;;;25.36;39.49
54262;BME280;40174;52.364;6.452;2022-09-01T10:53:00;101976.59;;;25.46;37.61
54262;BME280;40174;52.364;6.452;2022-09-01T10:55:31;101961.00;;;25.69;38.02
54262;BME280;40174;52.364;6.452;2022-09-01T11:00:55;101963.81;;;26.11;38.19
54262;BME280;40174;52.364;6.452;2022-09-01T11:03:51;101957.88;;;26.29;36.15
54262;BME280;40174;52.364;6.452;2022-09-01T11:06:44;101955.06;;;26.50;36.50
54262;BME280;40174;52.364;6.452;2022-09-01T11:09:21;101944.34;;;26.36;35.33
54262;BME280;40174;52.364;6.452;2022-09-01T11:11:59;101959.00;;;26.54;35.33
54262;BME280;40174;52.364;6.452;2022-09-01T11:14:32;101962.03;;;26.31;34.90
54262;BME280;40174;52.364;6.452;2022-09-01T11:17:11;101957.41;;;26.25;34.44
54262;BME280;40174;52.364;6.452;2022-09-01T11:19:40;101955.69;;;26.52;34.30
54262;BME280;40174;52.364;6.452;2022-09-01T11:22:24;101966.00;;;26.64;34.24
54262;BME280;40174;52.364;6.452;2022-09-01T11:28:08;101947.91;;;26.43;34.17
54262;BME280;40174;52.364;6.452;2022-09-01T11:30:40;101940.97;;;26.62;33.89
54262;BME280;40174;52.364;6.452;2022-09-01T11:33:28;101947.50;;;26.87;33.99
54262;BME280;40174;52.364;6.452;2022-09-01T11:36:01;101941.28;;;27.13;32.97
54262;BME280;40174;52.364;6.452;2022-09-01T11:38:43;101945.50;;;27.23;32.19
54262;BME280;40174;52.364;6.452;2022-09-01T11:41:19;101935.69;;;27.42;31.97
54262;BME280;40174;52.364;6.452;2022-09-01T11:43:50;101942.56;;;27.71;31.74
54262;BME280;40174;52.364;6.452;2022-09-01T11:46:20;101939.88;;;27.64;31.24
54262;BME280;40174;52.364;6.452;2022-09-01T11:48:48;101941.75;;;27.57;31.96
54262;BME280;40174;52.364;6.452;2022-09-01T11:51:16;101935.50;;;27.70;31.69
54262;BME280;40174;52.364;6.452;2022-09-01T11:53:43;101928.59;;;27.74;31.28
54262;BME280;40174;52.364;6.452;2022-09-01T11:56:15;101931.72;;;27.64;31.39
54262;BME280;40174;52.364;6.452;2022-09-01T11:58:42;101935.88;;;27.80;31.25
54262;BME280;40174;52.364;6.452;2022-09-01T12:01:14;101940.31;;;27.88;31.99
54262;BME280;40174;52.364;6.452;2022-09-01T12:03:42;101928.56;;;28.07;31.83
54262;BME280;40174;52.364;6.452;2022-09-01T12:06:11;101926.00;;;28.26;31.40
54262;BME280;40174;52.364;6.452;2022-09-01T12:08:41;101935.09;;;28.45;30.96
54262;BME280;40174;52.364;6.452;2022-09-01T12:11:19;101933.47;;;28.37;30.46
54262;BME280;40174;52.364;6.452;2022-09-01T12:13:54;101915.97;;;28.19;30.44
54262;BME280;40174;52.364;6.452;2022-09-01T12:16:21;101918.91;;;28.11;30.59
54262;BME280;40174;52.364;6.452;2022-09-01T12:18:49;101919.44;;;28.40;30.59
54262;BME280;40174;52.364;6.452;2022-09-01T12:21:21;101924.06;;;28.85;30.80
54262;BME280;40174;52.364;6.452;2022-09-01T12:23:49;101922.66;;;28.75;29.47
54262;BME280;40174;52.364;6.452;2022-09-01T12:26:19;101923.56;;;28.94;28.93
54262;BME280;40174;52.364;6.452;2022-09-01T12:28:49;101924.50;;;28.81;28.77
54262;BME280;40174;52.364;6.452;2022-09-01T12:31:18;101917.03;;;28.70;28.83
54262;BME280;40174;52.364;6.452;2022-09-01T12:33:48;101907.03;;;28.64;29.45
54262;BME280;40174;52.364;6.452;2022-09-01T12:36:20;101910.66;;;28.83;28.94
54262;BME280;40174;52.364;6.452;2022-09-01T12:38:50;101910.25;;;28.86;29.66
54262;BME280;40174;52.364;6.452;2022-09-01T12:41:25;101911.84;;;28.94;28.34
54262;BME280;40174;52.364;6.452;2022-09-01T12:43:56;101901.53;;;29.09;28.16
54262;BME280;40174;52.364;6.452;2022-09-01T12:46:39;101901.25;;;29.17;27.53
54262;BME280;40174;52.364;6.452;2022-09-01T12:49:16;101903.59;;;29.14;29.00
54262;BME280;40174;52.364;6.452;2022-09-01T12:51:43;101896.75;;;29.30;28.91
54262;BME280;40174;52.364;6.452;2022-09-01T12:54:14;101905.16;;;29.53;28.27
54262;BME280;40174;52.364;6.452;2022-09-01T12:56:47;101904.53;;;29.51;27.99
54262;BME280;40174;52.364;6.452;2022-09-01T12:59:21;101900.91;;;29.57;27.83
54262;BME280;40174;52.364;6.452;2022-09-01T13:01:47;101905.09;;;29.60;28.07
54262;BME280;40174;52.364;6.452;2022-09-01T13:04:28;101899.53;;;29.73;27.55
54262;BME280;40174;52.364;6.452;2022-09-01T13:07:00;101888.69;;;29.67;27.40
54262;BME280;40174;52.364;6.452;2022-09-01T13:09:28;101887.50;;;29.81;27.64
54262;BME280;40174;52.364;6.452;2022-09-01T13:12:09;101887.66;;;29.86;27.55
54262;BME280;40174;52.364;6.452;2022-09-01T13:14:35;101886.13;;;29.72;27.12